ADDS METAR Data INFO
IDs: Format: Raw Decoded Include TAF

Data at: 1742 UTC 15 Dec 2017

KDMO 151653Z AUTO 32011KT 10SM CLR 05/M04 A3016 RMK AO2 SLP221 T00501044
KDMO 151553Z AUTO 32008KT 10SM CLR 04/M03 A3016 RMK AO2 SLP221 T00441033
KDMO 151453Z AUTO 31008KT 10SM CLR 02/M01 A3015 RMK AO2 SLP218 T00221011 51009
KDMO 151353Z AUTO 29006KT 10SM CLR 01/M02 A3014 RMK AO2 SLP214 T00061022
KDMO 151253Z AUTO 29008KT 10SM OVC060 02/M01 A3014 RMK AO2 SLP214 T00171011
KDMO 151153Z AUTO 29008KT 10SM OVC060 02/M02 A3013 RMK AO2 SLP209 T00171022 10022 21006 53001
KDMO 151053Z AUTO 27007KT 10SM BKN040 OVC050 02/M02 A3012 RMK AO2 SLP206 T00171022
KDMO 150953Z AUTO 24006KT 10SM OVC055 01/M03 A3012 RMK AO2 SLP205 T00111028
KDMO 150853Z AUTO 22006KT 10SM OVC044 01/M03 A3012 RMK AO2 SLP208 T00111028 56000
KDMO 150753Z AUTO 00000KT 10SM OVC041 00/M02 A3012 RMK AO2 SLP209 T00001022
KDMO 150653Z AUTO 00000KT 10SM BKN042 00/M03 A3012 RMK AO2 SLP207 T00001033
KDMO 150553Z AUTO 20003KT 10SM CLR 01/M03 A3012 RMK AO2 SLP208 T00061033 10022 20000 400501017 58005
KDMO 150453Z AUTO 18003KT 10SM OVC041 01/M03 A3014 RMK AO2 SLP213 T00111028
KDMO 150353Z AUTO 16004KT 10SM OVC045 00/M02 A3014 RMK AO2 SLP216 T00001022
KDMO 150253Z AUTO 00000KT 10SM OVC049 01/M03 A3014 RMK AO2 SLP214 T00061028 51008
KDMO 150153Z AUTO 08003KT 10SM OVC048 01/M03 A3013 RMK AO2 SLP212 T00111028
KDMO 150053Z AUTO 00000KT 10SM OVC048 02/M03 A3013 RMK AO2 SLP212 T00171033
KDMO 142353Z AUTO 00000KT 10SM OVC046 02/M04 A3011 RMK AO2 SLP206 T00221039 10028 20017 53005
KDMO 142253Z AUTO 00000KT 10SM OVC047 02/M04 A3011 RMK AO2 SLP203 T00171039
KDMO 142153Z AUTO 35007KT 10SM OVC046 02/M04 A3010 RMK AO2 SLP201 T00221039
KDMO 142053Z AUTO 34009KT 10SM OVC031 02/M04 A3010 RMK AO2 SLP199 T00221039 55002
KDMO 141953Z AUTO 32008KT 10SM OVC039 02/M04 A3010 RMK AO2 SLP198 T00221044
KDMO 141853Z AUTO 33008KT 10SM OVC042 02/M04 A3009 RMK AO2 SLP197 T00221044
KDMO 141753Z AUTO 01010KT 10SM OVC031 02/M04 A3011 RMK AO2 SLP200 T00221044 10028 21017 50003
KDMO 141653Z AUTO 34009KT 10SM OVC046 02/M04 A3012 RMK AO2 SLP206 T00221044
KDMO 141553Z AUTO 36011KT 10SM OVC044 01/M04 A3012 RMK AO2 SLP204 T00111044
KDMO 141453Z AUTO 35007KT 10SM OVC042 01/M05 A3010 RMK AO2 SLP198 T00061050 53021
KDMO 141353Z AUTO 34008KT 10SM FEW039 M01/M06 A3007 RMK AO2 SLP188 T10111056
KDMO 141253Z AUTO 33006KT 10SM BKN040 M02/M05 A3005 RMK AO2 SLP183 T10171050
KDMO 141153Z AUTO 33007KT 10SM CLR M01/M04 A3003 RMK AO2 SLP176 T10061044 10050 21011 51020
KDMO 141053Z AUTO 35008KT 10SM OVC041 01/M04 A3003 RMK AO2 SLP172 T00061044
KDMO 140953Z AUTO 34006KT 10SM CLR 01/M05 A3000 RMK AO2 SLP161 T00061050
KDMO 140853Z AUTO 36012KT 10SM OVC037 03/M06 A2997 RMK AO2 SLP152 T00331056 53006
KDMO 140753Z AUTO 01014KT 10SM OVC039 04/M03 A2996 RMK AO2 SLP146 T00391033
KDMO 140653Z AUTO 36011KT 10SM OVC038 04/M03 A2995 RMK AO2 SLP144 T00441028
KDMO 140553Z AUTO 36010KT 10SM OVC039 05/M02 A2996 RMK AO2 SLP146 T00501022 10106 20044 401610006 53024